createdAt,value
2018-09-19T00:01:25.831Z,4.60
2018-09-19T00:06:20.306Z,4.07
2018-09-19T00:11:15.136Z,4.20
2018-09-19T00:16:10.123Z,4.70
2018-09-19T00:21:04.710Z,4.90
2018-09-19T00:25:59.213Z,4.60
2018-09-19T00:30:54.015Z,4.97
2018-09-19T00:35:48.734Z,4.27
2018-09-19T00:40:43.245Z,4.20
2018-09-19T00:45:37.705Z,4.53
2018-09-19T00:50:32.203Z,4.37
2018-09-19T00:55:26.693Z,5.07
2018-09-19T01:00:21.346Z,4.67
2018-09-19T01:05:15.909Z,4.57
2018-09-19T01:10:10.584Z,4.40
2018-09-19T01:15:05.154Z,5.13
2018-09-19T01:19:59.932Z,5.00
2018-09-19T01:24:57.167Z,5.00
2018-09-19T01:29:52.341Z,4.93
2018-09-19T01:34:46.923Z,4.80
2018-09-19T01:39:41.414Z,5.03
2018-09-19T01:44:36.034Z,5.30
2018-09-19T01:49:30.640Z,5.07
2018-09-19T01:54:26.005Z,5.10
2018-09-19T01:59:20.622Z,5.07
2018-09-19T02:04:15.412Z,4.93
2018-09-19T02:09:12.158Z,5.27
2018-09-19T02:14:07.312Z,4.97
2018-09-19T02:19:02.091Z,5.27
2018-09-19T02:23:56.798Z,5.70
2018-09-19T02:28:51.334Z,5.37
2018-09-19T02:33:46.250Z,5.20
2018-09-19T02:38:40.720Z,5.60
2018-09-19T02:43:35.192Z,5.10
2018-09-19T02:48:29.692Z,5.43
2018-09-19T02:53:24.317Z,5.87
2018-09-19T02:58:18.795Z,5.63
2018-09-19T03:03:13.262Z,5.63
2018-09-19T03:08:07.874Z,5.53
2018-09-19T03:13:02.348Z,6.10
2018-09-19T03:17:56.904Z,5.77
2018-09-19T03:22:51.476Z,5.53
2018-09-19T03:27:45.969Z,6.37
2018-09-19T03:32:40.682Z,5.90
2018-09-19T03:37:35.171Z,5.80
2018-09-19T03:42:29.650Z,6.47
2018-09-19T03:47:24.129Z,6.40
2018-09-19T03:52:18.583Z,7.20
2018-09-19T03:57:13.138Z,6.77
2018-09-19T04:02:07.600Z,7.00
2018-09-19T04:07:02.410Z,6.13
2018-09-19T04:11:56.909Z,6.63
2018-09-19T04:16:51.398Z,6.83
2018-09-19T04:21:49.526Z,5.73
2018-09-19T04:26:44.017Z,6.50
2018-09-19T04:31:38.495Z,7.40
2018-09-19T04:36:33.017Z,7.27
2018-09-19T04:41:27.516Z,6.80
2018-09-19T04:46:22.011Z,7.00
2018-09-19T04:51:16.589Z,6.80
2018-09-19T04:56:11.357Z,6.37
2018-09-19T05:01:05.876Z,7.87
2018-09-19T05:06:00.367Z,7.70
2018-09-19T05:10:54.818Z,7.37
2018-09-19T05:15:49.441Z,7.30
2018-09-19T05:20:43.907Z,7.30
2018-09-19T05:25:38.576Z,7.50
2018-09-19T05:30:33.070Z,6.73
2018-09-19T05:35:27.578Z,7.03
2018-09-19T05:40:22.092Z,7.13
2018-09-19T05:45:16.593Z,7.07
2018-09-19T05:50:11.044Z,7.33
2018-09-19T05:55:05.673Z,7.47
2018-09-19T06:00:00.331Z,7.23
2018-09-19T06:04:54.840Z,6.77
2018-09-19T06:09:50.008Z,6.93
2018-09-19T06:14:45.391Z,6.57
2018-09-19T06:19:40.028Z,6.43
2018-09-19T06:24:34.686Z,6.90
2018-09-19T06:29:29.321Z,6.83
2018-09-19T06:34:24.230Z,6.30
2018-09-19T06:39:18.834Z,5.67
2018-09-19T06:44:14.351Z,6.70
2018-09-19T06:49:08.833Z,6.70
2018-09-19T06:54:03.677Z,6.70
2018-09-19T06:59:00.088Z,6.03
2018-09-19T07:03:56.382Z,6.17
2018-09-19T07:08:50.850Z,5.93
2018-09-19T07:13:45.703Z,6.30
2018-09-19T07:18:40.934Z,5.83
2018-09-19T07:23:35.886Z,5.83
2018-09-19T07:28:31.732Z,5.97
2018-09-19T07:33:26.733Z,5.63
2018-09-19T07:38:21.778Z,5.93
2018-09-19T07:43:17.455Z,4.73
2018-09-19T07:48:12.255Z,5.60
2018-09-19T07:53:07.203Z,5.53
2018-09-19T07:58:02.451Z,5.30
2018-09-19T08:02:57.440Z,5.10
2018-09-19T08:07:52.858Z,5.23
2018-09-19T08:12:48.090Z,4.63
2018-09-19T08:17:43.044Z,5.07
2018-09-19T08:22:37.786Z,5.07
2018-09-19T08:27:32.927Z,5.10
2018-09-19T08:32:28.265Z,4.90
2018-09-19T08:37:23.390Z,4.80
2018-09-19T08:42:18.394Z,4.60
2018-09-19T08:47:13.581Z,4.30
2018-09-19T08:52:08.685Z,4.00
2018-09-19T08:57:03.430Z,3.87
2018-09-19T09:01:58.566Z,3.70
2018-09-19T09:06:53.372Z,3.50
2018-09-19T09:11:48.287Z,4.10
2018-09-19T09:16:43.039Z,3.53
2018-09-19T09:21:38.024Z,3.00
2018-09-19T09:26:32.966Z,3.33
2018-09-19T09:31:27.912Z,3.63
2018-09-19T09:36:22.849Z,2.97
2018-09-19T09:41:17.844Z,2.87
2018-09-19T09:46:12.647Z,3.37
2018-09-19T09:51:07.379Z,3.00
2018-09-19T09:56:02.259Z,3.27
2018-09-19T10:00:57.034Z,2.73
2018-09-19T10:05:51.979Z,2.90
2018-09-19T10:10:46.769Z,3.20
2018-09-19T10:15:41.490Z,3.37
2018-09-19T10:20:36.542Z,2.30
2018-09-19T10:25:31.373Z,2.60
2018-09-19T10:30:26.403Z,2.60
2018-09-19T10:35:21.317Z,2.77
2018-09-19T10:40:17.281Z,2.50
2018-09-19T10:45:13.367Z,3.00
2018-09-19T10:50:08.224Z,2.50
2018-09-19T10:55:02.970Z,2.70
2018-09-19T10:59:57.695Z,3.10
2018-09-19T11:04:52.440Z,2.80
2018-09-19T11:09:47.210Z,3.10
2018-09-19T11:14:41.961Z,2.90
2018-09-19T11:19:36.695Z,3.10
2018-09-19T11:24:31.456Z,2.83
2018-09-19T11:29:27.259Z,3.10
2018-09-19T11:34:21.976Z,3.30
2018-09-19T11:39:16.758Z,2.77
2018-09-19T11:44:11.609Z,3.17
2018-09-19T11:49:06.661Z,3.00
2018-09-19T11:54:01.408Z,3.13
2018-09-19T11:58:56.504Z,2.60
2018-09-19T12:03:51.230Z,2.90
2018-09-19T12:08:45.993Z,3.07
2018-09-19T12:13:41.310Z,3.10
2018-09-19T12:18:36.150Z,2.90
2018-09-19T12:23:30.922Z,3.10
2018-09-19T12:28:25.869Z,2.97
2018-09-19T12:33:20.675Z,2.93
2018-09-19T12:38:15.636Z,2.80
2018-09-19T12:43:10.463Z,2.63
2018-09-19T12:48:05.369Z,3.23
2018-09-19T12:53:01.028Z,2.97
2018-09-19T12:57:55.736Z,3.53
2018-09-19T13:02:50.862Z,3.13
2018-09-19T13:07:45.761Z,3.07
2018-09-19T13:12:41.309Z,2.80
2018-09-19T13:17:36.164Z,2.97
2018-09-19T13:22:31.132Z,3.10
2018-09-19T13:27:25.924Z,3.10
2018-09-19T13:32:21.281Z,3.07
2018-09-19T13:37:15.994Z,3.20
2018-09-19T13:42:11.173Z,2.63
2018-09-19T13:47:06.517Z,3.27
2018-09-19T13:52:01.324Z,3.10
2018-09-19T13:56:56.086Z,3.07
2018-09-19T14:01:51.077Z,3.30
2018-09-19T14:06:45.808Z,3.63
2018-09-19T14:11:40.605Z,2.80
2018-09-19T14:16:35.502Z,3.23
2018-09-19T14:21:30.242Z,3.33
2018-09-19T14:26:25.740Z,2.73
2018-09-19T14:31:20.490Z,2.90
2018-09-19T14:36:15.321Z,2.97
2018-09-19T14:41:10.314Z,2.97
2018-09-19T14:46:05.857Z,2.90
2018-09-19T14:51:00.685Z,2.90
2018-09-19T14:55:55.458Z,2.80
2018-09-19T15:00:50.797Z,3.10
2018-09-19T15:05:45.822Z,3.00
2018-09-19T15:10:40.805Z,3.00
2018-09-19T15:15:35.762Z,3.60
2018-09-19T15:20:30.917Z,3.07
2018-09-19T15:25:25.953Z,2.90
2018-09-19T15:30:20.885Z,3.07
2018-09-19T15:35:15.708Z,3.07
2018-09-19T15:40:10.473Z,3.03
2018-09-19T15:45:05.543Z,2.90
2018-09-19T15:50:00.304Z,3.30
2018-09-19T15:54:55.751Z,3.03
2018-09-19T15:59:53.435Z,4.33
2018-09-19T16:04:49.210Z,3.20
2018-09-19T16:09:44.368Z,2.80
2018-09-19T16:14:39.327Z,3.30
2018-09-19T16:19:34.920Z,2.90
2018-09-19T16:24:29.654Z,2.87
2018-09-19T16:29:24.406Z,3.43
2018-09-19T16:34:19.183Z,3.50
2018-09-19T16:39:14.270Z,3.10
2018-09-19T16:44:09.068Z,3.27
2018-09-19T16:49:04.746Z,3.07
2018-09-19T16:54:00.425Z,3.37
2018-09-19T16:58:55.803Z,3.40
2018-09-19T17:03:50.557Z,3.80
2018-09-19T17:08:45.054Z,2.97
2018-09-19T17:13:39.549Z,4.30
2018-09-19T17:18:34.192Z,3.30
2018-09-19T17:23:28.670Z,3.33
2018-09-19T17:28:23.249Z,3.43
2018-09-19T17:33:18.239Z,3.30
2018-09-19T17:38:12.992Z,3.33
2018-09-19T17:43:08.032Z,3.53
2018-09-19T17:48:02.510Z,3.40
2018-09-19T17:52:57.255Z,3.13
2018-09-19T17:57:51.818Z,3.47
2018-09-19T18:02:46.308Z,4.03
2018-09-19T18:07:40.773Z,4.40
2018-09-19T18:12:46.055Z,4.00
2018-09-19T18:17:44.103Z,4.00
2018-09-19T18:22:53.072Z,3.47
2018-09-19T18:27:47.597Z,3.90
2018-09-19T18:32:42.895Z,3.03
2018-09-19T18:37:37.741Z,3.50
2018-09-19T18:42:32.867Z,3.27
2018-09-19T18:47:27.776Z,3.70
2018-09-19T18:52:22.434Z,3.47
2018-09-19T18:57:17.000Z,3.20
2018-09-19T19:02:11.661Z,3.20
2018-09-19T19:07:06.444Z,3.37
2018-09-19T19:12:01.269Z,3.20
2018-09-19T19:16:56.147Z,3.63
2018-09-19T19:21:50.866Z,3.27
2018-09-19T19:26:45.386Z,3.30
2018-09-19T19:31:39.865Z,3.03
2018-09-19T19:36:34.785Z,3.83
2018-09-19T19:41:29.420Z,4.27
2018-09-19T19:46:24.227Z,3.30
2018-09-19T19:51:18.912Z,4.10
2018-09-19T19:56:13.430Z,3.50
2018-09-19T20:01:08.366Z,3.73
2018-09-19T20:06:03.003Z,3.60
2018-09-19T20:10:57.555Z,3.80
2018-09-19T20:15:52.261Z,3.53
2018-09-19T20:20:46.809Z,3.73
2018-09-19T20:25:41.419Z,3.60
2018-09-19T20:30:36.394Z,3.73
2018-09-19T20:35:30.928Z,4.10
2018-09-19T20:40:27.431Z,4.10
2018-09-19T20:45:21.933Z,4.03
2018-09-19T20:50:16.491Z,4.17
2018-09-19T20:55:11.034Z,3.77
2018-09-19T21:00:06.298Z,3.63
2018-09-19T21:05:01.042Z,3.97
2018-09-19T21:09:57.076Z,3.77
2018-09-19T21:14:52.477Z,3.90
2018-09-19T21:19:47.091Z,4.30
2018-09-19T21:24:41.689Z,4.23
2018-09-19T21:29:36.226Z,3.80
2018-09-19T21:34:30.770Z,3.83
2018-09-19T21:39:25.443Z,4.30
2018-09-19T21:44:20.400Z,4.30
2018-09-19T21:49:16.302Z,4.10
2018-09-19T21:54:10.772Z,4.20
2018-09-19T21:59:05.453Z,4.77
2018-09-19T22:04:00.034Z,4.17
2018-09-19T22:08:55.118Z,4.67
2018-09-19T22:13:49.607Z,5.00
2018-09-19T22:18:44.300Z,4.73
2018-09-19T22:23:38.846Z,4.50
2018-09-19T22:28:35.794Z,3.80
2018-09-19T22:33:30.265Z,4.43
2018-09-19T22:38:24.816Z,4.50
2018-09-19T22:43:19.664Z,4.57
2018-09-19T22:48:14.327Z,4.70
2018-09-19T22:53:08.981Z,4.63
2018-09-19T22:58:03.688Z,4.70
2018-09-19T23:02:58.162Z,4.70
2018-09-19T23:07:52.937Z,5.73
2018-09-19T23:12:47.439Z,4.17
2018-09-19T23:17:41.953Z,4.40
2018-09-19T23:22:36.787Z,4.43
2018-09-19T23:27:31.446Z,5.00
2018-09-19T23:32:25.886Z,4.40
2018-09-19T23:37:21.013Z,4.73
2018-09-19T23:42:15.476Z,5.47
2018-09-19T23:47:09.956Z,5.13
2018-09-19T23:52:04.590Z,4.80
2018-09-19T23:56:59.090Z,4.63
